sensor_id;sensor_type;location;lat;lon;timestamp;P1;durP1;ratioP1;P2;durP2;ratioP2
4686;SDS011;2357;47.316;-1.348;2024-01-10T00:01:29;21.07;;;14.70;;
4686;SDS011;2357;47.316;-1.348;2024-01-10T00:03:55;19.23;;;13.63;;
4686;SDS011;2357;47.316;-1.348;2024-01-10T00:06:21;20.10;;;13.50;;
4686;SDS011;2357;47.316;-1.348;2024-01-10T00:08:48;23.23;;;15.33;;
4686;SDS011;2357;47.316;-1.348;2024-01-10T00:11:14;22.97;;;14.90;;
4686;SDS011;2357;47.316;-1.348;2024-01-10T00:13:39;18.13;;;14.73;;
4686;SDS011;2357;47.316;-1.348;2024-01-10T00:16:05;20.67;;;15.00;;
4686;SDS011;2357;47.316;-1.348;2024-01-10T00:18:31;23.60;;;14.50;;
4686;SDS011;2357;47.316;-1.348;2024-01-10T00:20:56;19.40;;;14.47;;
4686;SDS011;2357;47.316;-1.348;2024-01-10T00:23:23;20.63;;;14.27;;
4686;SDS011;2357;47.316;-1.348;2024-01-10T00:25:48;25.63;;;15.50;;
4686;SDS011;2357;47.316;-1.348;2024-01-10T00:28:14;18.60;;;13.57;;
4686;SDS011;2357;47.316;-1.348;2024-01-10T00:30:43;21.27;;;14.50;;
4686;SDS011;2357;47.316;-1.348;2024-01-10T00:33:12;20.83;;;14.57;;
4686;SDS011;2357;47.316;-1.348;2024-01-10T00:35:38;21.17;;;14.03;;
4686;SDS011;2357;47.316;-1.348;2024-01-10T00:38:03;19.50;;;13.80;;
4686;SDS011;2357;47.316;-1.348;2024-01-10T00:40:29;20.27;;;14.40;;
4686;SDS011;2357;47.316;-1.348;2024-01-10T00:42:54;20.73;;;15.43;;
4686;SDS011;2357;47.316;-1.348;2024-01-10T00:45:20;22.70;;;15.00;;
4686;SDS011;2357;47.316;-1.348;2024-01-10T00:47:47;17.17;;;13.47;;
4686;SDS011;2357;47.316;-1.348;2024-01-10T00:50:13;17.80;;;13.70;;
4686;SDS011;2357;47.316;-1.348;2024-01-10T00:52:39;23.70;;;14.67;;
4686;SDS011;2357;47.316;-1.348;2024-01-10T00:55:05;17.30;;;13.77;;
4686;SDS011;2357;47.316;-1.348;2024-01-10T00:57:30;22.30;;;14.43;;
4686;SDS011;2357;47.316;-1.348;2024-01-10T00:59:56;19.30;;;14.63;;
4686;SDS011;2357;47.316;-1.348;2024-01-10T01:02:22;18.50;;;13.53;;
4686;SDS011;2357;47.316;-1.348;2024-01-10T01:04:47;20.13;;;15.17;;
4686;SDS011;2357;47.316;-1.348;2024-01-10T01:07:13;21.90;;;15.43;;
4686;SDS011;2357;47.316;-1.348;2024-01-10T01:09:38;22.40;;;15.00;;
4686;SDS011;2357;47.316;-1.348;2024-01-10T01:12:04;23.23;;;15.20;;
4686;SDS011;2357;47.316;-1.348;2024-01-10T01:14:30;21.00;;;14.97;;
4686;SDS011;2357;47.316;-1.348;2024-01-10T01:16:55;17.33;;;12.90;;
4686;SDS011;2357;47.316;-1.348;2024-01-10T01:19:21;19.73;;;14.60;;
4686;SDS011;2357;47.316;-1.348;2024-01-10T01:21:47;20.80;;;14.50;;
4686;SDS011;2357;47.316;-1.348;2024-01-10T01:24:12;21.97;;;14.40;;
4686;SDS011;2357;47.316;-1.348;2024-01-10T01:26:38;22.80;;;16.00;;
4686;SDS011;2357;47.316;-1.348;2024-01-10T01:29:03;21.00;;;15.90;;
4686;SDS011;2357;47.316;-1.348;2024-01-10T01:31:29;23.00;;;15.10;;
4686;SDS011;2357;47.316;-1.348;2024-01-10T01:33:55;20.70;;;14.70;;
4686;SDS011;2357;47.316;-1.348;2024-01-10T01:36:21;21.00;;;15.63;;
4686;SDS011;2357;47.316;-1.348;2024-01-10T01:38:46;24.80;;;14.80;;
4686;SDS011;2357;47.316;-1.348;2024-01-10T01:41:12;21.33;;;14.40;;
4686;SDS011;2357;47.316;-1.348;2024-01-10T01:43:40;20.80;;;15.20;;
4686;SDS011;2357;47.316;-1.348;2024-01-10T01:46:06;24.70;;;16.47;;
4686;SDS011;2357;47.316;-1.348;2024-01-10T01:48:32;24.60;;;17.10;;
4686;SDS011;2357;47.316;-1.348;2024-01-10T01:51:06;25.43;;;14.40;;
4686;SDS011;2357;47.316;-1.348;2024-01-10T01:53:33;23.90;;;16.10;;
4686;SDS011;2357;47.316;-1.348;2024-01-10T01:56:00;23.60;;;16.43;;
4686;SDS011;2357;47.316;-1.348;2024-01-10T01:58:37;21.17;;;15.87;;
4686;SDS011;2357;47.316;-1.348;2024-01-10T02:01:05;24.60;;;16.50;;
4686;SDS011;2357;47.316;-1.348;2024-01-10T02:03:31;21.90;;;16.60;;
4686;SDS011;2357;47.316;-1.348;2024-01-10T02:05:57;25.53;;;16.43;;
4686;SDS011;2357;47.316;-1.348;2024-01-10T02:08:24;24.30;;;16.70;;
4686;SDS011;2357;47.316;-1.348;2024-01-10T02:10:49;23.97;;;16.80;;
4686;SDS011;2357;47.316;-1.348;2024-01-10T02:13:15;22.80;;;15.13;;
4686;SDS011;2357;47.316;-1.348;2024-01-10T02:15:41;24.60;;;15.77;;
4686;SDS011;2357;47.316;-1.348;2024-01-10T02:18:07;20.93;;;15.27;;
4686;SDS011;2357;47.316;-1.348;2024-01-10T02:20:37;24.60;;;16.53;;
4686;SDS011;2357;47.316;-1.348;2024-01-10T02:23:02;24.27;;;17.60;;
4686;SDS011;2357;47.316;-1.348;2024-01-10T02:25:28;25.63;;;16.23;;
4686;SDS011;2357;47.316;-1.348;2024-01-10T02:27:54;24.70;;;18.27;;
4686;SDS011;2357;47.316;-1.348;2024-01-10T02:30:19;22.80;;;16.53;;
4686;SDS011;2357;47.316;-1.348;2024-01-10T02:32:45;26.90;;;16.53;;
4686;SDS011;2357;47.316;-1.348;2024-01-10T02:35:10;24.97;;;17.33;;
4686;SDS011;2357;47.316;-1.348;2024-01-10T02:37:36;23.40;;;16.40;;
4686;SDS011;2357;47.316;-1.348;2024-01-10T02:40:02;24.23;;;16.50;;
4686;SDS011;2357;47.316;-1.348;2024-01-10T02:42:27;24.83;;;16.37;;
4686;SDS011;2357;47.316;-1.348;2024-01-10T02:44:55;22.43;;;16.77;;
4686;SDS011;2357;47.316;-1.348;2024-01-10T02:47:20;24.50;;;16.27;;
4686;SDS011;2357;47.316;-1.348;2024-01-10T02:49:46;27.47;;;17.70;;
4686;SDS011;2357;47.316;-1.348;2024-01-10T02:52:12;26.90;;;16.73;;
4686;SDS011;2357;47.316;-1.348;2024-01-10T02:54:37;23.13;;;17.13;;
4686;SDS011;2357;47.316;-1.348;2024-01-10T02:57:03;26.10;;;17.90;;
4686;SDS011;2357;47.316;-1.348;2024-01-10T02:59:29;23.93;;;17.20;;
4686;SDS011;2357;47.316;-1.348;2024-01-10T03:01:54;31.87;;;18.40;;
4686;SDS011;2357;47.316;-1.348;2024-01-10T03:04:20;24.73;;;16.80;;
4686;SDS011;2357;47.316;-1.348;2024-01-10T03:06:45;25.07;;;18.43;;
4686;SDS011;2357;47.316;-1.348;2024-01-10T03:09:11;24.57;;;17.57;;
4686;SDS011;2357;47.316;-1.348;2024-01-10T03:11:37;26.00;;;18.00;;
4686;SDS011;2357;47.316;-1.348;2024-01-10T03:14:11;25.43;;;17.77;;
4686;SDS011;2357;47.316;-1.348;2024-01-10T03:16:37;29.33;;;18.83;;
4686;SDS011;2357;47.316;-1.348;2024-01-10T03:19:03;31.00;;;21.37;;
4686;SDS011;2357;47.316;-1.348;2024-01-10T03:21:28;30.30;;;20.97;;
4686;SDS011;2357;47.316;-1.348;2024-01-10T03:23:58;27.50;;;19.40;;
4686;SDS011;2357;47.316;-1.348;2024-01-10T03:26:26;27.37;;;19.40;;
4686;SDS011;2357;47.316;-1.348;2024-01-10T03:28:52;32.00;;;20.90;;
4686;SDS011;2357;47.316;-1.348;2024-01-10T03:31:18;29.33;;;20.20;;
4686;SDS011;2357;47.316;-1.348;2024-01-10T03:33:44;27.23;;;18.47;;
4686;SDS011;2357;47.316;-1.348;2024-01-10T03:36:14;25.63;;;19.00;;
4686;SDS011;2357;47.316;-1.348;2024-01-10T03:38:41;27.23;;;19.50;;
4686;SDS011;2357;47.316;-1.348;2024-01-10T03:41:07;27.97;;;18.90;;
4686;SDS011;2357;47.316;-1.348;2024-01-10T03:43:32;24.80;;;18.50;;
4686;SDS011;2357;47.316;-1.348;2024-01-10T03:45:58;29.70;;;19.40;;
4686;SDS011;2357;47.316;-1.348;2024-01-10T03:48:24;29.17;;;19.20;;
4686;SDS011;2357;47.316;-1.348;2024-01-10T03:50:50;26.87;;;19.07;;
4686;SDS011;2357;47.316;-1.348;2024-01-10T03:53:15;27.60;;;18.20;;
4686;SDS011;2357;47.316;-1.348;2024-01-10T03:55:41;29.63;;;19.17;;
4686;SDS011;2357;47.316;-1.348;2024-01-10T03:58:07;28.50;;;19.17;;
4686;SDS011;2357;47.316;-1.348;2024-01-10T04:00:32;25.63;;;18.40;;
4686;SDS011;2357;47.316;-1.348;2024-01-10T04:02:58;25.93;;;18.40;;
4686;SDS011;2357;47.316;-1.348;2024-01-10T04:05:24;29.77;;;19.10;;
4686;SDS011;2357;47.316;-1.348;2024-01-10T04:07:50;27.03;;;18.43;;
4686;SDS011;2357;47.316;-1.348;2024-01-10T04:10:17;28.73;;;19.20;;
4686;SDS011;2357;47.316;-1.348;2024-01-10T04:12:43;22.47;;;16.47;;
4686;SDS011;2357;47.316;-1.348;2024-01-10T04:15:09;23.07;;;17.17;;
4686;SDS011;2357;47.316;-1.348;2024-01-10T04:17:35;25.60;;;18.13;;
4686;SDS011;2357;47.316;-1.348;2024-01-10T04:20:01;26.53;;;17.47;;
4686;SDS011;2357;47.316;-1.348;2024-01-10T04:22:27;26.00;;;17.03;;
4686;SDS011;2357;47.316;-1.348;2024-01-10T04:24:53;24.97;;;16.80;;
4686;SDS011;2357;47.316;-1.348;2024-01-10T04:27:20;25.90;;;17.23;;
4686;SDS011;2357;47.316;-1.348;2024-01-10T04:29:46;23.30;;;16.10;;
4686;SDS011;2357;47.316;-1.348;2024-01-10T04:32:12;25.17;;;16.77;;
4686;SDS011;2357;47.316;-1.348;2024-01-10T04:34:38;27.07;;;16.70;;
4686;SDS011;2357;47.316;-1.348;2024-01-10T04:37:03;23.53;;;17.47;;
4686;SDS011;2357;47.316;-1.348;2024-01-10T04:39:29;27.07;;;18.50;;
4686;SDS011;2357;47.316;-1.348;2024-01-10T04:41:55;24.97;;;17.97;;
4686;SDS011;2357;47.316;-1.348;2024-01-10T04:44:20;25.20;;;17.57;;
4686;SDS011;2357;47.316;-1.348;2024-01-10T04:46:46;25.00;;;16.80;;
4686;SDS011;2357;47.316;-1.348;2024-01-10T04:49:11;24.33;;;17.10;;
4686;SDS011;2357;47.316;-1.348;2024-01-10T04:51:37;23.13;;;17.50;;
4686;SDS011;2357;47.316;-1.348;2024-01-10T04:54:04;23.90;;;18.17;;
4686;SDS011;2357;47.316;-1.348;2024-01-10T04:56:29;26.97;;;17.67;;
4686;SDS011;2357;47.316;-1.348;2024-01-10T04:58:55;25.40;;;17.83;;
4686;SDS011;2357;47.316;-1.348;2024-01-10T05:01:21;24.97;;;17.00;;
4686;SDS011;2357;47.316;-1.348;2024-01-10T05:03:46;27.07;;;18.07;;
4686;SDS011;2357;47.316;-1.348;2024-01-10T05:06:12;21.57;;;16.33;;
4686;SDS011;2357;47.316;-1.348;2024-01-10T05:08:38;22.73;;;16.70;;
4686;SDS011;2357;47.316;-1.348;2024-01-10T05:11:03;25.83;;;18.03;;
4686;SDS011;2357;47.316;-1.348;2024-01-10T05:13:29;25.53;;;17.37;;
4686;SDS011;2357;47.316;-1.348;2024-01-10T05:15:55;25.27;;;18.17;;
4686;SDS011;2357;47.316;-1.348;2024-01-10T05:18:21;25.53;;;16.90;;
4686;SDS011;2357;47.316;-1.348;2024-01-10T05:20:47;25.37;;;17.70;;
4686;SDS011;2357;47.316;-1.348;2024-01-10T05:23:12;27.93;;;18.60;;
4686;SDS011;2357;47.316;-1.348;2024-01-10T05:25:38;26.87;;;16.83;;
4686;SDS011;2357;47.316;-1.348;2024-01-10T05:28:04;25.73;;;17.33;;
4686;SDS011;2357;47.316;-1.348;2024-01-10T05:30:30;26.80;;;16.80;;
4686;SDS011;2357;47.316;-1.348;2024-01-10T05:32:56;22.77;;;17.03;;
4686;SDS011;2357;47.316;-1.348;2024-01-10T05:35:23;22.83;;;16.60;;
4686;SDS011;2357;47.316;-1.348;2024-01-10T05:37:51;24.83;;;18.17;;
4686;SDS011;2357;47.316;-1.348;2024-01-10T05:40:17;27.67;;;18.10;;
4686;SDS011;2357;47.316;-1.348;2024-01-10T05:42:43;24.63;;;17.40;;
4686;SDS011;2357;47.316;-1.348;2024-01-10T05:45:09;27.50;;;18.97;;
4686;SDS011;2357;47.316;-1.348;2024-01-10T05:47:35;27.87;;;17.43;;
4686;SDS011;2357;47.316;-1.348;2024-01-10T05:50:02;26.93;;;17.90;;
4686;SDS011;2357;47.316;-1.348;2024-01-10T05:52:31;35.50;;;16.93;;
4686;SDS011;2357;47.316;-1.348;2024-01-10T05:54:57;24.63;;;17.03;;
4686;SDS011;2357;47.316;-1.348;2024-01-10T05:57:22;26.50;;;18.30;;
4686;SDS011;2357;47.316;-1.348;2024-01-10T05:59:48;27.27;;;17.03;;
4686;SDS011;2357;47.316;-1.348;2024-01-10T06:02:13;26.33;;;16.83;;
4686;SDS011;2357;47.316;-1.348;2024-01-10T06:04:41;29.63;;;17.93;;
4686;SDS011;2357;47.316;-1.348;2024-01-10T06:07:07;29.57;;;18.53;;
4686;SDS011;2357;47.316;-1.348;2024-01-10T06:09:32;32.80;;;18.40;;
4686;SDS011;2357;47.316;-1.348;2024-01-10T06:11:58;25.57;;;17.80;;
4686;SDS011;2357;47.316;-1.348;2024-01-10T06:14:24;26.93;;;17.77;;
4686;SDS011;2357;47.316;-1.348;2024-01-10T06:16:49;26.50;;;18.30;;
4686;SDS011;2357;47.316;-1.348;2024-01-10T06:19:15;25.53;;;17.90;;
4686;SDS011;2357;47.316;-1.348;2024-01-10T06:21:40;25.90;;;18.70;;
4686;SDS011;2357;47.316;-1.348;2024-01-10T06:24:07;29.50;;;19.30;;
4686;SDS011;2357;47.316;-1.348;2024-01-10T06:26:33;28.63;;;18.00;;
4686;SDS011;2357;47.316;-1.348;2024-01-10T06:28:58;22.07;;;15.53;;
4686;SDS011;2357;47.316;-1.348;2024-01-10T06:31:24;26.37;;;17.13;;
4686;SDS011;2357;47.316;-1.348;2024-01-10T06:33:49;30.07;;;19.87;;
4686;SDS011;2357;47.316;-1.348;2024-01-10T06:36:15;26.63;;;18.90;;
4686;SDS011;2357;47.316;-1.348;2024-01-10T06:38:41;26.80;;;17.07;;
4686;SDS011;2357;47.316;-1.348;2024-01-10T06:41:07;30.43;;;17.87;;
4686;SDS011;2357;47.316;-1.348;2024-01-10T06:43:38;23.77;;;16.17;;
4686;SDS011;2357;47.316;-1.348;2024-01-10T06:46:04;28.37;;;17.70;;
4686;SDS011;2357;47.316;-1.348;2024-01-10T06:48:30;26.13;;;16.30;;
4686;SDS011;2357;47.316;-1.348;2024-01-10T06:50:57;26.13;;;17.53;;
4686;SDS011;2357;47.316;-1.348;2024-01-10T06:53:22;28.60;;;18.17;;
4686;SDS011;2357;47.316;-1.348;2024-01-10T06:55:48;26.10;;;17.10;;
4686;SDS011;2357;47.316;-1.348;2024-01-10T06:58:14;27.03;;;17.60;;
4686;SDS011;2357;47.316;-1.348;2024-01-10T07:00:39;26.10;;;16.13;;
4686;SDS011;2357;47.316;-1.348;2024-01-10T07:03:05;29.63;;;17.90;;
4686;SDS011;2357;47.316;-1.348;2024-01-10T07:05:30;30.13;;;18.53;;
4686;SDS011;2357;47.316;-1.348;2024-01-10T07:07:59;25.80;;;17.27;;
4686;SDS011;2357;47.316;-1.348;2024-01-10T07:10:28;26.13;;;18.03;;
4686;SDS011;2357;47.316;-1.348;2024-01-10T07:12:54;26.40;;;18.40;;
4686;SDS011;2357;47.316;-1.348;2024-01-10T07:15:20;31.67;;;17.47;;
4686;SDS011;2357;47.316;-1.348;2024-01-10T07:17:46;25.07;;;18.60;;
4686;SDS011;2357;47.316;-1.348;2024-01-10T07:20:12;27.53;;;18.90;;
4686;SDS011;2357;47.316;-1.348;2024-01-10T07:22:38;26.23;;;18.50;;
4686;SDS011;2357;47.316;-1.348;2024-01-10T07:25:09;25.33;;;17.37;;
4686;SDS011;2357;47.316;-1.348;2024-01-10T07:27:35;26.10;;;17.57;;
4686;SDS011;2357;47.316;-1.348;2024-01-10T07:30:05;28.60;;;18.27;;
4686;SDS011;2357;47.316;-1.348;2024-01-10T07:32:42;23.80;;;17.63;;
4686;SDS011;2357;47.316;-1.348;2024-01-10T07:35:08;29.13;;;18.37;;
4686;SDS011;2357;47.316;-1.348;2024-01-10T07:37:36;26.40;;;17.80;;
4686;SDS011;2357;47.316;-1.348;2024-01-10T07:40:03;27.60;;;18.03;;
4686;SDS011;2357;47.316;-1.348;2024-01-10T07:42:33;29.40;;;19.53;;
4686;SDS011;2357;47.316;-1.348;2024-01-10T07:44:59;26.70;;;17.87;;
4686;SDS011;2357;47.316;-1.348;2024-01-10T07:47:28;28.00;;;18.80;;
4686;SDS011;2357;47.316;-1.348;2024-01-10T07:50:07;26.00;;;17.80;;
4686;SDS011;2357;47.316;-1.348;2024-01-10T07:52:34;25.10;;;18.33;;
4686;SDS011;2357;47.316;-1.348;2024-01-10T07:55:00;26.47;;;18.10;;
4686;SDS011;2357;47.316;-1.348;2024-01-10T07:57:26;23.73;;;17.13;;
4686;SDS011;2357;47.316;-1.348;2024-01-10T07:59:55;24.30;;;17.40;;
4686;SDS011;2357;47.316;-1.348;2024-01-10T08:02:20;29.77;;;20.50;;
4686;SDS011;2357;47.316;-1.348;2024-01-10T08:04:46;24.30;;;17.30;;
4686;SDS011;2357;47.316;-1.348;2024-01-10T08:07:12;24.40;;;17.07;;
4686;SDS011;2357;47.316;-1.348;2024-01-10T08:09:38;27.37;;;18.07;;
4686;SDS011;2357;47.316;-1.348;2024-01-10T08:12:04;28.63;;;18.57;;
4686;SDS011;2357;47.316;-1.348;2024-01-10T08:14:29;26.53;;;19.17;;
4686;SDS011;2357;47.316;-1.348;2024-01-10T08:16:55;27.37;;;16.93;;
4686;SDS011;2357;47.316;-1.348;2024-01-10T08:19:26;24.53;;;18.00;;
4686;SDS011;2357;47.316;-1.348;2024-01-10T08:21:52;28.80;;;19.20;;
4686;SDS011;2357;47.316;-1.348;2024-01-10T08:24:19;32.40;;;19.93;;
4686;SDS011;2357;47.316;-1.348;2024-01-10T08:26:46;29.60;;;19.90;;
4686;SDS011;2357;47.316;-1.348;2024-01-10T08:29:12;25.60;;;18.07;;
4686;SDS011;2357;47.316;-1.348;2024-01-10T08:31:37;28.93;;;17.97;;
4686;SDS011;2357;47.316;-1.348;2024-01-10T08:34:04;25.43;;;18.53;;
4686;SDS011;2357;47.316;-1.348;2024-01-10T08:36:29;45.17;;;28.00;;
4686;SDS011;2357;47.316;-1.348;2024-01-10T08:38:55;29.17;;;20.40;;
4686;SDS011;2357;47.316;-1.348;2024-01-10T08:41:20;32.30;;;20.10;;
4686;SDS011;2357;47.316;-1.348;2024-01-10T08:43:46;29.50;;;20.67;;
4686;SDS011;2357;47.316;-1.348;2024-01-10T08:46:12;29.60;;;17.47;;
4686;SDS011;2357;47.316;-1.348;2024-01-10T08:48:38;28.23;;;19.63;;
4686;SDS011;2357;47.316;-1.348;2024-01-10T08:51:03;24.83;;;18.00;;
4686;SDS011;2357;47.316;-1.348;2024-01-10T08:53:29;27.70;;;18.53;;
4686;SDS011;2357;47.316;-1.348;2024-01-10T08:55:55;35.90;;;22.60;;
4686;SDS011;2357;47.316;-1.348;2024-01-10T08:58:21;30.83;;;21.13;;
4686;SDS011;2357;47.316;-1.348;2024-01-10T09:00:46;24.93;;;18.00;;
4686;SDS011;2357;47.316;-1.348;2024-01-10T09:03:12;28.67;;;18.60;;
4686;SDS011;2357;47.316;-1.348;2024-01-10T09:05:38;26.40;;;18.70;;
4686;SDS011;2357;47.316;-1.348;2024-01-10T09:08:04;31.90;;;18.40;;
4686;SDS011;2357;47.316;-1.348;2024-01-10T09:10:30;29.23;;;19.07;;
4686;SDS011;2357;47.316;-1.348;2024-01-10T09:12:55;27.10;;;17.90;;
4686;SDS011;2357;47.316;-1.348;2024-01-10T09:15:22;30.90;;;18.07;;
4686;SDS011;2357;47.316;-1.348;2024-01-10T09:17:48;30.17;;;19.07;;
4686;SDS011;2357;47.316;-1.348;2024-01-10T09:20:14;27.63;;;19.13;;
4686;SDS011;2357;47.316;-1.348;2024-01-10T09:22:40;27.07;;;19.43;;
4686;SDS011;2357;47.316;-1.348;2024-01-10T09:25:06;26.37;;;18.40;;
4686;SDS011;2357;47.316;-1.348;2024-01-10T09:27:32;25.80;;;18.47;;
4686;SDS011;2357;47.316;-1.348;2024-01-10T09:30:04;23.40;;;18.03;;
4686;SDS011;2357;47.316;-1.348;2024-01-10T09:32:33;24.77;;;17.87;;
4686;SDS011;2357;47.316;-1.348;2024-01-10T09:35:00;30.20;;;19.60;;
4686;SDS011;2357;47.316;-1.348;2024-01-10T09:37:25;31.77;;;19.80;;
4686;SDS011;2357;47.316;-1.348;2024-01-10T09:39:51;28.70;;;18.57;;
4686;SDS011;2357;47.316;-1.348;2024-01-10T09:42:17;28.40;;;18.80;;
4686;SDS011;2357;47.316;-1.348;2024-01-10T09:44:44;33.47;;;19.07;;
4686;SDS011;2357;47.316;-1.348;2024-01-10T09:47:10;32.37;;;20.53;;
4686;SDS011;2357;47.316;-1.348;2024-01-10T09:49:38;34.83;;;20.33;;
4686;SDS011;2357;47.316;-1.348;2024-01-10T09:52:04;31.00;;;21.20;;
4686;SDS011;2357;47.316;-1.348;2024-01-10T09:54:31;29.47;;;18.90;;
4686;SDS011;2357;47.316;-1.348;2024-01-10T09:56:57;29.90;;;19.30;;
4686;SDS011;2357;47.316;-1.348;2024-01-10T09:59:23;29.97;;;20.40;;
4686;SDS011;2357;47.316;-1.348;2024-01-10T10:01:50;33.63;;;21.83;;
4686;SDS011;2357;47.316;-1.348;2024-01-10T10:04:17;27.57;;;20.13;;
4686;SDS011;2357;47.316;-1.348;2024-01-10T10:06:44;31.40;;;21.37;;
4686;SDS011;2357;47.316;-1.348;2024-01-10T10:09:10;58.63;;;34.27;;
4686;SDS011;2357;47.316;-1.348;2024-01-10T10:11:37;45.97;;;25.97;;
4686;SDS011;2357;47.316;-1.348;2024-01-10T10:14:15;36.47;;;22.40;;
4686;SDS011;2357;47.316;-1.348;2024-01-10T10:16:43;35.57;;;22.57;;
4686;SDS011;2357;47.316;-1.348;2024-01-10T10:19:08;30.37;;;19.87;;
4686;SDS011;2357;47.316;-1.348;2024-01-10T10:21:36;31.03;;;20.57;;
4686;SDS011;2357;47.316;-1.348;2024-01-10T10:24:02;29.33;;;18.33;;
4686;SDS011;2357;47.316;-1.348;2024-01-10T10:26:32;32.40;;;20.27;;
4686;SDS011;2357;47.316;-1.348;2024-01-10T10:28:59;29.43;;;18.50;;
4686;SDS011;2357;47.316;-1.348;2024-01-10T10:31:24;34.17;;;22.20;;
4686;SDS011;2357;47.316;-1.348;2024-01-10T10:33:51;32.57;;;21.10;;
4686;SDS011;2357;47.316;-1.348;2024-01-10T10:36:17;30.70;;;20.30;;
4686;SDS011;2357;47.316;-1.348;2024-01-10T10:38:46;31.30;;;19.87;;
4686;SDS011;2357;47.316;-1.348;2024-01-10T10:41:13;31.50;;;21.20;;
4686;SDS011;2357;47.316;-1.348;2024-01-10T10:43:39;32.73;;;21.43;;
4686;SDS011;2357;47.316;-1.348;2024-01-10T10:46:08;33.23;;;21.90;;
4686;SDS011;2357;47.316;-1.348;2024-01-10T10:48:37;32.37;;;20.97;;
4686;SDS011;2357;47.316;-1.348;2024-01-10T10:51:17;32.87;;;23.10;;
4686;SDS011;2357;47.316;-1.348;2024-01-10T10:53:53;34.10;;;21.73;;
4686;SDS011;2357;47.316;-1.348;2024-01-10T10:56:19;32.53;;;21.97;;
4686;SDS011;2357;47.316;-1.348;2024-01-10T10:58:45;32.70;;;21.13;;
4686;SDS011;2357;47.316;-1.348;2024-01-10T11:01:12;33.27;;;21.30;;
4686;SDS011;2357;47.316;-1.348;2024-01-10T11:03:39;29.80;;;20.27;;
4686;SDS011;2357;47.316;-1.348;2024-01-10T11:06:06;32.30;;;21.13;;
4686;SDS011;2357;47.316;-1.348;2024-01-10T11:08:36;31.20;;;20.77;;
4686;SDS011;2357;47.316;-1.348;2024-01-10T11:11:03;35.23;;;20.93;;
4686;SDS011;2357;47.316;-1.348;2024-01-10T11:13:47;31.03;;;20.87;;
4686;SDS011;2357;47.316;-1.348;2024-01-10T11:21:33;36.63;;;20.43;;
4686;SDS011;2357;47.316;-1.348;2024-01-10T11:24:10;31.53;;;20.03;;
4686;SDS011;2357;47.316;-1.348;2024-01-10T11:26:37;33.17;;;21.20;;
4686;SDS011;2357;47.316;-1.348;2024-01-10T11:29:04;28.50;;;19.60;;
4686;SDS011;2357;47.316;-1.348;2024-01-10T11:31:30;26.80;;;18.50;;
4686;SDS011;2357;47.316;-1.348;2024-01-10T11:34:00;35.27;;;21.10;;
4686;SDS011;2357;47.316;-1.348;2024-01-10T11:36:27;29.77;;;19.37;;
4686;SDS011;2357;47.316;-1.348;2024-01-10T11:38:54;32.30;;;20.03;;
4686;SDS011;2357;47.316;-1.348;2024-01-10T11:41:30;31.17;;;20.53;;
4686;SDS011;2357;47.316;-1.348;2024-01-10T11:46:43;34.40;;;20.03;;
4686;SDS011;2357;47.316;-1.348;2024-01-10T11:49:16;26.90;;;19.33;;
4686;SDS011;2357;47.316;-1.348;2024-01-10T11:51:43;33.17;;;21.47;;
4686;SDS011;2357;47.316;-1.348;2024-01-10T11:57:07;30.50;;;19.70;;
4686;SDS011;2357;47.316;-1.348;2024-01-10T11:59:53;34.83;;;20.63;;
4686;SDS011;2357;47.316;-1.348;2024-01-10T12:02:20;31.67;;;21.27;;
4686;SDS011;2357;47.316;-1.348;2024-01-10T12:04:48;30.97;;;20.80;;
4686;SDS011;2357;47.316;-1.348;2024-01-10T12:07:15;28.93;;;19.50;;
4686;SDS011;2357;47.316;-1.348;2024-01-10T12:09:42;31.87;;;19.87;;
4686;SDS011;2357;47.316;-1.348;2024-01-10T12:12:08;32.83;;;19.23;;
4686;SDS011;2357;47.316;-1.348;2024-01-10T12:14:36;30.00;;;19.43;;
4686;SDS011;2357;47.316;-1.348;2024-01-10T12:17:02;34.13;;;19.50;;
4686;SDS011;2357;47.316;-1.348;2024-01-10T12:19:29;33.17;;;19.20;;
4686;SDS011;2357;47.316;-1.348;2024-01-10T12:21:55;34.77;;;20.90;;
4686;SDS011;2357;47.316;-1.348;2024-01-10T12:24:21;31.53;;;19.67;;
4686;SDS011;2357;47.316;-1.348;2024-01-10T12:26:47;35.80;;;23.00;;
4686;SDS011;2357;47.316;-1.348;2024-01-10T12:29:17;34.27;;;19.80;;
4686;SDS011;2357;47.316;-1.348;2024-01-10T12:31:45;48.70;;;25.07;;
4686;SDS011;2357;47.316;-1.348;2024-01-10T12:34:12;34.40;;;21.13;;
4686;SDS011;2357;47.316;-1.348;2024-01-10T12:36:39;30.23;;;19.53;;
4686;SDS011;2357;47.316;-1.348;2024-01-10T12:39:05;30.60;;;22.13;;
4686;SDS011;2357;47.316;-1.348;2024-01-10T12:41:33;32.10;;;20.90;;
4686;SDS011;2357;47.316;-1.348;2024-01-10T12:44:00;36.90;;;19.30;;
4686;SDS011;2357;47.316;-1.348;2024-01-10T12:46:28;33.83;;;20.00;;
4686;SDS011;2357;47.316;-1.348;2024-01-10T12:49:07;31.27;;;19.70;;
4686;SDS011;2357;47.316;-1.348;2024-01-10T12:51:33;32.17;;;20.37;;
4686;SDS011;2357;47.316;-1.348;2024-01-10T12:54:01;29.57;;;19.87;;
4686;SDS011;2357;47.316;-1.348;2024-01-10T12:56:29;27.47;;;18.47;;
4686;SDS011;2357;47.316;-1.348;2024-01-10T12:58:55;28.63;;;17.53;;
4686;SDS011;2357;47.316;-1.348;2024-01-10T13:01:21;31.97;;;19.60;;
4686;SDS011;2357;47.316;-1.348;2024-01-10T13:03:47;31.57;;;18.50;;
4686;SDS011;2357;47.316;-1.348;2024-01-10T13:06:16;28.63;;;18.10;;
4686;SDS011;2357;47.316;-1.348;2024-01-10T13:08:43;30.93;;;18.70;;
4686;SDS011;2357;47.316;-1.348;2024-01-10T13:11:10;27.47;;;17.40;;
4686;SDS011;2357;47.316;-1.348;2024-01-10T13:13:36;26.07;;;17.27;;
4686;SDS011;2357;47.316;-1.348;2024-01-10T13:16:02;29.57;;;19.27;;
4686;SDS011;2357;47.316;-1.348;2024-01-10T13:18:28;28.50;;;18.07;;
4686;SDS011;2357;47.316;-1.348;2024-01-10T13:20:54;30.80;;;19.10;;
4686;SDS011;2357;47.316;-1.348;2024-01-10T13:23:20;28.10;;;17.40;;
4686;SDS011;2357;47.316;-1.348;2024-01-10T13:25:48;29.17;;;18.60;;
4686;SDS011;2357;47.316;-1.348;2024-01-10T13:28:13;28.90;;;16.87;;
4686;SDS011;2357;47.316;-1.348;2024-01-10T13:30:40;26.07;;;18.87;;
4686;SDS011;2357;47.316;-1.348;2024-01-10T13:33:06;31.30;;;18.30;;
4686;SDS011;2357;47.316;-1.348;2024-01-10T13:35:33;29.87;;;18.70;;
4686;SDS011;2357;47.316;-1.348;2024-01-10T13:37:59;40.90;;;18.80;;
4686;SDS011;2357;47.316;-1.348;2024-01-10T13:40:24;25.40;;;17.00;;
4686;SDS011;2357;47.316;-1.348;2024-01-10T13:42:52;29.30;;;18.33;;
4686;SDS011;2357;47.316;-1.348;2024-01-10T13:45:18;28.77;;;17.20;;
4686;SDS011;2357;47.316;-1.348;2024-01-10T13:47:45;28.40;;;17.53;;
4686;SDS011;2357;47.316;-1.348;2024-01-10T13:50:11;25.37;;;16.93;;
4686;SDS011;2357;47.316;-1.348;2024-01-10T13:52:36;27.87;;;20.10;;
4686;SDS011;2357;47.316;-1.348;2024-01-10T13:55:02;28.77;;;18.30;;
4686;SDS011;2357;47.316;-1.348;2024-01-10T13:57:31;33.50;;;21.97;;
4686;SDS011;2357;47.316;-1.348;2024-01-10T14:00:00;34.53;;;19.03;;
4686;SDS011;2357;47.316;-1.348;2024-01-10T14:02:26;32.43;;;19.40;;
4686;SDS011;2357;47.316;-1.348;2024-01-10T14:04:52;35.43;;;21.40;;
4686;SDS011;2357;47.316;-1.348;2024-01-10T14:07:31;35.67;;;21.23;;
4686;SDS011;2357;47.316;-1.348;2024-01-10T14:09:57;30.70;;;20.50;;
4686;SDS011;2357;47.316;-1.348;2024-01-10T14:12:23;28.53;;;19.43;;
4686;SDS011;2357;47.316;-1.348;2024-01-10T14:14:48;30.00;;;19.50;;
4686;SDS011;2357;47.316;-1.348;2024-01-10T14:17:14;29.03;;;18.47;;
4686;SDS011;2357;47.316;-1.348;2024-01-10T14:19:40;32.53;;;19.80;;
4686;SDS011;2357;47.316;-1.348;2024-01-10T14:22:05;32.67;;;20.10;;
4686;SDS011;2357;47.316;-1.348;2024-01-10T14:24:31;26.90;;;17.90;;
4686;SDS011;2357;47.316;-1.348;2024-01-10T14:26:57;28.90;;;19.13;;
4686;SDS011;2357;47.316;-1.348;2024-01-10T14:29:23;29.10;;;17.77;;
4686;SDS011;2357;47.316;-1.348;2024-01-10T14:31:49;28.73;;;19.30;;
4686;SDS011;2357;47.316;-1.348;2024-01-10T14:34:15;32.07;;;19.60;;
4686;SDS011;2357;47.316;-1.348;2024-01-10T14:36:40;25.70;;;17.53;;
4686;SDS011;2357;47.316;-1.348;2024-01-10T14:39:06;21.10;;;15.03;;
4686;SDS011;2357;47.316;-1.348;2024-01-10T14:41:32;23.97;;;16.90;;